sensor_id;sensor_type;location;lat;lon;timestamp;P1;durP1;ratioP1;P2;durP2;ratioP2
39958;SDS011;25639;53.634;9.880;2023-10-31T00:02:02;16.35;;;8.98;;
39958;SDS011;25639;53.634;9.880;2023-10-31T00:04:28;14.65;;;8.18;;
39958;SDS011;25639;53.634;9.880;2023-10-31T00:06:53;14.55;;;7.53;;
39958;SDS011;25639;53.634;9.880;2023-10-31T00:09:18;16.92;;;8.40;;
39958;SDS011;25639;53.634;9.880;2023-10-31T00:11:44;15.60;;;8.45;;
39958;SDS011;25639;53.634;9.880;2023-10-31T00:14:09;14.52;;;8.27;;
39958;SDS011;25639;53.634;9.880;2023-10-31T00:16:34;15.50;;;8.90;;
39958;SDS011;25639;53.634;9.880;2023-10-31T00:19:00;15.80;;;8.68;;
39958;SDS011;25639;53.634;9.880;2023-10-31T00:21:26;15.98;;;8.57;;
39958;SDS011;25639;53.634;9.880;2023-10-31T00:23:52;17.30;;;9.70;;
39958;SDS011;25639;53.634;9.880;2023-10-31T00:26:17;16.75;;;9.27;;
39958;SDS011;25639;53.634;9.880;2023-10-31T00:28:42;15.55;;;10.13;;
39958;SDS011;25639;53.634;9.880;2023-10-31T00:31:08;16.05;;;9.60;;
39958;SDS011;25639;53.634;9.880;2023-10-31T00:33:37;17.80;;;8.80;;
39958;SDS011;25639;53.634;9.880;2023-10-31T00:36:03;19.45;;;9.75;;
39958;SDS011;25639;53.634;9.880;2023-10-31T00:38:28;14.45;;;9.50;;
39958;SDS011;25639;53.634;9.880;2023-10-31T00:40:54;18.85;;;9.90;;
39958;SDS011;25639;53.634;9.880;2023-10-31T00:43:19;19.40;;;10.73;;
39958;SDS011;25639;53.634;9.880;2023-10-31T00:45:44;20.27;;;10.63;;
39958;SDS011;25639;53.634;9.880;2023-10-31T00:48:10;18.13;;;11.10;;
39958;SDS011;25639;53.634;9.880;2023-10-31T00:50:35;17.55;;;11.30;;
39958;SDS011;25639;53.634;9.880;2023-10-31T00:53:00;25.23;;;12.35;;
39958;SDS011;25639;53.634;9.880;2023-10-31T00:55:26;21.10;;;12.70;;
39958;SDS011;25639;53.634;9.880;2023-10-31T00:57:51;27.23;;;14.25;;
39958;SDS011;25639;53.634;9.880;2023-10-31T01:00:16;23.27;;;13.65;;
39958;SDS011;25639;53.634;9.880;2023-10-31T01:02:42;23.40;;;14.23;;
39958;SDS011;25639;53.634;9.880;2023-10-31T01:05:07;26.40;;;14.02;;
39958;SDS011;25639;53.634;9.880;2023-10-31T01:07:34;29.27;;;15.27;;
39958;SDS011;25639;53.634;9.880;2023-10-31T01:09:59;23.63;;;13.90;;
39958;SDS011;25639;53.634;9.880;2023-10-31T01:12:24;22.35;;;14.48;;
39958;SDS011;25639;53.634;9.880;2023-10-31T01:14:52;21.10;;;13.55;;
39958;SDS011;25639;53.634;9.880;2023-10-31T01:17:18;25.20;;;14.48;;
39958;SDS011;25639;53.634;9.880;2023-10-31T01:19:43;22.25;;;12.60;;
39958;SDS011;25639;53.634;9.880;2023-10-31T01:22:08;22.88;;;13.50;;
39958;SDS011;25639;53.634;9.880;2023-10-31T01:24:34;22.98;;;14.15;;
39958;SDS011;25639;53.634;9.880;2023-10-31T01:27:00;27.25;;;13.98;;
39958;SDS011;25639;53.634;9.880;2023-10-31T01:29:25;22.45;;;13.90;;
39958;SDS011;25639;53.634;9.880;2023-10-31T01:31:50;22.92;;;14.32;;
39958;SDS011;25639;53.634;9.880;2023-10-31T01:34:15;25.73;;;14.85;;
39958;SDS011;25639;53.634;9.880;2023-10-31T01:36:41;26.20;;;14.73;;
39958;SDS011;25639;53.634;9.880;2023-10-31T01:39:06;23.38;;;14.38;;
39958;SDS011;25639;53.634;9.880;2023-10-31T01:41:32;24.40;;;14.85;;
39958;SDS011;25639;53.634;9.880;2023-10-31T01:43:58;23.63;;;14.43;;
39958;SDS011;25639;53.634;9.880;2023-10-31T01:46:23;21.63;;;13.65;;
39958;SDS011;25639;53.634;9.880;2023-10-31T01:48:48;26.45;;;15.07;;
39958;SDS011;25639;53.634;9.880;2023-10-31T01:51:13;21.85;;;14.27;;
39958;SDS011;25639;53.634;9.880;2023-10-31T01:53:39;23.52;;;14.60;;
39958;SDS011;25639;53.634;9.880;2023-10-31T01:56:05;23.17;;;14.82;;
39958;SDS011;25639;53.634;9.880;2023-10-31T01:58:35;23.92;;;14.50;;
39958;SDS011;25639;53.634;9.880;2023-10-31T02:01:01;24.45;;;13.93;;
39958;SDS011;25639;53.634;9.880;2023-10-31T02:03:28;23.83;;;14.18;;
39958;SDS011;25639;53.634;9.880;2023-10-31T02:05:53;24.23;;;13.95;;
39958;SDS011;25639;53.634;9.880;2023-10-31T02:08:19;21.67;;;13.27;;
39958;SDS011;25639;53.634;9.880;2023-10-31T02:10:44;23.45;;;13.52;;
39958;SDS011;25639;53.634;9.880;2023-10-31T02:13:13;19.17;;;12.75;;
39958;SDS011;25639;53.634;9.880;2023-10-31T02:15:39;19.73;;;13.15;;
39958;SDS011;25639;53.634;9.880;2023-10-31T02:18:05;21.60;;;12.57;;
39958;SDS011;25639;53.634;9.880;2023-10-31T02:20:31;19.67;;;12.93;;
39958;SDS011;25639;53.634;9.880;2023-10-31T02:22:57;18.58;;;12.73;;
39958;SDS011;25639;53.634;9.880;2023-10-31T02:25:22;21.95;;;12.90;;
39958;SDS011;25639;53.634;9.880;2023-10-31T02:27:47;25.98;;;13.25;;
39958;SDS011;25639;53.634;9.880;2023-10-31T02:30:13;22.38;;;12.75;;
39958;SDS011;25639;53.634;9.880;2023-10-31T02:32:39;18.55;;;11.20;;
39958;SDS011;25639;53.634;9.880;2023-10-31T02:35:05;16.17;;;10.68;;
39958;SDS011;25639;53.634;9.880;2023-10-31T02:37:30;22.02;;;11.68;;
39958;SDS011;25639;53.634;9.880;2023-10-31T02:39:56;18.27;;;10.77;;
39958;SDS011;25639;53.634;9.880;2023-10-31T02:42:21;23.08;;;10.90;;
39958;SDS011;25639;53.634;9.880;2023-10-31T02:44:46;20.02;;;11.35;;
39958;SDS011;25639;53.634;9.880;2023-10-31T02:47:11;18.98;;;11.18;;
39958;SDS011;25639;53.634;9.880;2023-10-31T02:49:37;18.67;;;10.35;;
39958;SDS011;25639;53.634;9.880;2023-10-31T02:52:02;19.58;;;10.18;;
39958;SDS011;25639;53.634;9.880;2023-10-31T02:54:27;16.98;;;10.85;;
39958;SDS011;25639;53.634;9.880;2023-10-31T02:56:53;18.20;;;10.23;;
39958;SDS011;25639;53.634;9.880;2023-10-31T02:59:18;20.48;;;10.90;;
39958;SDS011;25639;53.634;9.880;2023-10-31T03:01:43;19.17;;;10.73;;
39958;SDS011;25639;53.634;9.880;2023-10-31T03:04:08;19.15;;;10.82;;
39958;SDS011;25639;53.634;9.880;2023-10-31T03:06:34;15.40;;;10.32;;
39958;SDS011;25639;53.634;9.880;2023-10-31T03:08:59;15.25;;;9.95;;
39958;SDS011;25639;53.634;9.880;2023-10-31T03:11:27;14.35;;;9.85;;
39958;SDS011;25639;53.634;9.880;2023-10-31T03:13:53;13.07;;;9.07;;
39958;SDS011;25639;53.634;9.880;2023-10-31T03:16:19;22.05;;;10.30;;
39958;SDS011;25639;53.634;9.880;2023-10-31T03:18:45;15.07;;;9.43;;
39958;SDS011;25639;53.634;9.880;2023-10-31T03:21:11;16.27;;;9.60;;
39958;SDS011;25639;53.634;9.880;2023-10-31T03:23:36;16.10;;;9.63;;
39958;SDS011;25639;53.634;9.880;2023-10-31T03:26:01;16.83;;;9.68;;
39958;SDS011;25639;53.634;9.880;2023-10-31T03:28:27;14.05;;;8.40;;
39958;SDS011;25639;53.634;9.880;2023-10-31T03:30:52;16.90;;;9.70;;
39958;SDS011;25639;53.634;9.880;2023-10-31T03:33:18;14.52;;;8.23;;
39958;SDS011;25639;53.634;9.880;2023-10-31T03:35:43;16.02;;;9.55;;
39958;SDS011;25639;53.634;9.880;2023-10-31T03:38:09;16.27;;;9.65;;
39958;SDS011;25639;53.634;9.880;2023-10-31T03:40:34;15.05;;;9.25;;
39958;SDS011;25639;53.634;9.880;2023-10-31T03:43:00;15.30;;;9.05;;
39958;SDS011;25639;53.634;9.880;2023-10-31T03:45:25;13.30;;;9.00;;
39958;SDS011;25639;53.634;9.880;2023-10-31T03:47:50;15.25;;;9.55;;
39958;SDS011;25639;53.634;9.880;2023-10-31T03:50:15;13.82;;;7.75;;
39958;SDS011;25639;53.634;9.880;2023-10-31T03:52:41;16.88;;;9.20;;
39958;SDS011;25639;53.634;9.880;2023-10-31T03:55:06;14.82;;;9.18;;
39958;SDS011;25639;53.634;9.880;2023-10-31T03:57:32;12.63;;;8.48;;
39958;SDS011;25639;53.634;9.880;2023-10-31T03:59:58;14.73;;;8.43;;
39958;SDS011;25639;53.634;9.880;2023-10-31T04:02:23;14.52;;;8.27;;
39958;SDS011;25639;53.634;9.880;2023-10-31T04:04:48;11.60;;;7.07;;
39958;SDS011;25639;53.634;9.880;2023-10-31T04:07:14;12.05;;;7.45;;
39958;SDS011;25639;53.634;9.880;2023-10-31T04:09:40;11.35;;;7.47;;
39958;SDS011;25639;53.634;9.880;2023-10-31T04:12:05;13.15;;;7.05;;
39958;SDS011;25639;53.634;9.880;2023-10-31T04:14:30;13.95;;;7.40;;
39958;SDS011;25639;53.634;9.880;2023-10-31T04:16:56;12.77;;;7.18;;
39958;SDS011;25639;53.634;9.880;2023-10-31T04:19:21;11.65;;;6.72;;
39958;SDS011;25639;53.634;9.880;2023-10-31T04:21:46;11.32;;;7.30;;
39958;SDS011;25639;53.634;9.880;2023-10-31T04:24:11;9.93;;;6.88;;
39958;SDS011;25639;53.634;9.880;2023-10-31T04:26:37;10.25;;;7.15;;
39958;SDS011;25639;53.634;9.880;2023-10-31T04:29:02;11.32;;;7.47;;
39958;SDS011;25639;53.634;9.880;2023-10-31T04:31:27;10.52;;;7.85;;
39958;SDS011;25639;53.634;9.880;2023-10-31T04:33:52;14.82;;;8.10;;
39958;SDS011;25639;53.634;9.880;2023-10-31T04:36:18;11.30;;;7.63;;
39958;SDS011;25639;53.634;9.880;2023-10-31T04:38:43;14.88;;;8.40;;
39958;SDS011;25639;53.634;9.880;2023-10-31T04:41:08;13.00;;;8.40;;
39958;SDS011;25639;53.634;9.880;2023-10-31T04:43:34;14.27;;;8.93;;
39958;SDS011;25639;53.634;9.880;2023-10-31T04:46:00;12.45;;;8.77;;
39958;SDS011;25639;53.634;9.880;2023-10-31T04:48:25;13.27;;;8.80;;
39958;SDS011;25639;53.634;9.880;2023-10-31T04:50:50;15.88;;;8.85;;
39958;SDS011;25639;53.634;9.880;2023-10-31T04:53:16;11.75;;;8.55;;
39958;SDS011;25639;53.634;9.880;2023-10-31T04:55:41;13.50;;;9.27;;
39958;SDS011;25639;53.634;9.880;2023-10-31T04:58:06;20.15;;;9.50;;
39958;SDS011;25639;53.634;9.880;2023-10-31T05:00:31;14.88;;;9.32;;
39958;SDS011;25639;53.634;9.880;2023-10-31T05:02:57;16.50;;;10.00;;
39958;SDS011;25639;53.634;9.880;2023-10-31T05:05:23;15.95;;;10.30;;
39958;SDS011;25639;53.634;9.880;2023-10-31T05:07:48;14.05;;;9.93;;
39958;SDS011;25639;53.634;9.880;2023-10-31T05:10:13;14.90;;;9.63;;
39958;SDS011;25639;53.634;9.880;2023-10-31T05:12:39;15.45;;;9.80;;
39958;SDS011;25639;53.634;9.880;2023-10-31T05:15:04;17.63;;;10.00;;
39958;SDS011;25639;53.634;9.880;2023-10-31T05:17:30;18.13;;;9.90;;
39958;SDS011;25639;53.634;9.880;2023-10-31T05:19:55;17.40;;;10.00;;
39958;SDS011;25639;53.634;9.880;2023-10-31T05:22:21;16.83;;;10.35;;
39958;SDS011;25639;53.634;9.880;2023-10-31T05:24:46;16.52;;;10.27;;
39958;SDS011;25639;53.634;9.880;2023-10-31T05:27:12;22.33;;;12.43;;
39958;SDS011;25639;53.634;9.880;2023-10-31T05:29:38;15.65;;;10.65;;
39958;SDS011;25639;53.634;9.880;2023-10-31T05:32:04;21.63;;;11.52;;
39958;SDS011;25639;53.634;9.880;2023-10-31T05:34:30;18.92;;;11.20;;
39958;SDS011;25639;53.634;9.880;2023-10-31T05:36:55;18.15;;;10.40;;
39958;SDS011;25639;53.634;9.880;2023-10-31T05:39:20;14.95;;;9.60;;
39958;SDS011;25639;53.634;9.880;2023-10-31T05:41:45;17.65;;;10.55;;
39958;SDS011;25639;53.634;9.880;2023-10-31T05:44:11;17.58;;;11.13;;
39958;SDS011;25639;53.634;9.880;2023-10-31T05:46:39;17.75;;;10.20;;
39958;SDS011;25639;53.634;9.880;2023-10-31T05:49:06;18.85;;;11.43;;
39958;SDS011;25639;53.634;9.880;2023-10-31T05:51:32;22.75;;;11.10;;
39958;SDS011;25639;53.634;9.880;2023-10-31T05:53:57;17.13;;;11.00;;
39958;SDS011;25639;53.634;9.880;2023-10-31T05:56:23;18.50;;;11.00;;
39958;SDS011;25639;53.634;9.880;2023-10-31T05:58:48;16.98;;;11.50;;
39958;SDS011;25639;53.634;9.880;2023-10-31T06:01:13;20.25;;;11.98;;
39958;SDS011;25639;53.634;9.880;2023-10-31T06:03:40;20.65;;;12.60;;
39958;SDS011;25639;53.634;9.880;2023-10-31T06:06:08;18.77;;;11.90;;
39958;SDS011;25639;53.634;9.880;2023-10-31T06:08:33;18.15;;;10.90;;
39958;SDS011;25639;53.634;9.880;2023-10-31T06:10:59;19.58;;;12.15;;
39958;SDS011;25639;53.634;9.880;2023-10-31T06:13:25;16.52;;;11.02;;
39958;SDS011;25639;53.634;9.880;2023-10-31T06:15:51;22.50;;;11.65;;
39958;SDS011;25639;53.634;9.880;2023-10-31T06:18:16;21.67;;;12.15;;
39958;SDS011;25639;53.634;9.880;2023-10-31T06:20:41;21.60;;;13.25;;
39958;SDS011;25639;53.634;9.880;2023-10-31T06:23:07;20.80;;;12.18;;
39958;SDS011;25639;53.634;9.880;2023-10-31T06:25:32;25.42;;;13.40;;
39958;SDS011;25639;53.634;9.880;2023-10-31T06:27:57;19.63;;;11.98;;
39958;SDS011;25639;53.634;9.880;2023-10-31T06:30:22;21.83;;;12.73;;
39958;SDS011;25639;53.634;9.880;2023-10-31T06:32:49;22.27;;;12.88;;
39958;SDS011;25639;53.634;9.880;2023-10-31T06:35:15;18.52;;;11.73;;
39958;SDS011;25639;53.634;9.880;2023-10-31T06:37:40;19.67;;;12.27;;
39958;SDS011;25639;53.634;9.880;2023-10-31T06:40:06;19.75;;;12.15;;
39958;SDS011;25639;53.634;9.880;2023-10-31T06:42:32;20.52;;;11.32;;
39958;SDS011;25639;53.634;9.880;2023-10-31T06:44:57;23.10;;;13.05;;
39958;SDS011;25639;53.634;9.880;2023-10-31T06:47:22;23.83;;;12.75;;
39958;SDS011;25639;53.634;9.880;2023-10-31T06:49:47;21.13;;;11.88;;
39958;SDS011;25639;53.634;9.880;2023-10-31T06:52:13;21.75;;;12.52;;
39958;SDS011;25639;53.634;9.880;2023-10-31T06:54:38;21.50;;;12.63;;
39958;SDS011;25639;53.634;9.880;2023-10-31T06:57:03;20.52;;;12.25;;
39958;SDS011;25639;53.634;9.880;2023-10-31T06:59:29;20.63;;;12.68;;
39958;SDS011;25639;53.634;9.880;2023-10-31T07:01:54;21.60;;;12.63;;
39958;SDS011;25639;53.634;9.880;2023-10-31T07:04:19;19.48;;;11.45;;
39958;SDS011;25639;53.634;9.880;2023-10-31T07:06:45;20.15;;;11.60;;
39958;SDS011;25639;53.634;9.880;2023-10-31T07:09:10;19.90;;;11.73;;
39958;SDS011;25639;53.634;9.880;2023-10-31T07:11:35;19.75;;;11.40;;
39958;SDS011;25639;53.634;9.880;2023-10-31T07:14:01;18.55;;;11.20;;
39958;SDS011;25639;53.634;9.880;2023-10-31T07:16:31;18.88;;;10.82;;
39958;SDS011;25639;53.634;9.880;2023-10-31T07:18:57;20.00;;;11.00;;
39958;SDS011;25639;53.634;9.880;2023-10-31T07:21:22;17.85;;;10.50;;
39958;SDS011;25639;53.634;9.880;2023-10-31T07:23:48;18.92;;;10.05;;
39958;SDS011;25639;53.634;9.880;2023-10-31T07:26:14;17.02;;;9.35;;
39958;SDS011;25639;53.634;9.880;2023-10-31T07:28:39;15.10;;;8.70;;
39958;SDS011;25639;53.634;9.880;2023-10-31T07:31:04;13.30;;;7.53;;
39958;SDS011;25639;53.634;9.880;2023-10-31T07:33:30;10.50;;;5.95;;
39958;SDS011;25639;53.634;9.880;2023-10-31T07:35:55;9.05;;;4.95;;
39958;SDS011;25639;53.634;9.880;2023-10-31T07:38:20;7.28;;;4.65;;
39958;SDS011;25639;53.634;9.880;2023-10-31T07:40:46;9.20;;;5.70;;
39958;SDS011;25639;53.634;9.880;2023-10-31T07:43:12;12.25;;;7.53;;
39958;SDS011;25639;53.634;9.880;2023-10-31T07:45:38;13.13;;;8.00;;
39958;SDS011;25639;53.634;9.880;2023-10-31T07:48:03;20.15;;;12.82;;
39958;SDS011;25639;53.634;9.880;2023-10-31T07:50:28;23.67;;;12.48;;
39958;SDS011;25639;53.634;9.880;2023-10-31T07:52:54;25.13;;;13.27;;
39958;SDS011;25639;53.634;9.880;2023-10-31T07:55:19;27.27;;;15.43;;
39958;SDS011;25639;53.634;9.880;2023-10-31T07:57:44;27.35;;;16.48;;
39958;SDS011;25639;53.634;9.880;2023-10-31T08:00:10;21.35;;;13.07;;
39958;SDS011;25639;53.634;9.880;2023-10-31T08:02:36;9.98;;;6.05;;
39958;SDS011;25639;53.634;9.880;2023-10-31T08:05:02;9.13;;;5.90;;
39958;SDS011;25639;53.634;9.880;2023-10-31T08:07:27;5.82;;;4.28;;
39958;SDS011;25639;53.634;9.880;2023-10-31T08:09:55;3.53;;;2.35;;
39958;SDS011;25639;53.634;9.880;2023-10-31T08:12:20;3.47;;;2.28;;
39958;SDS011;25639;53.634;9.880;2023-10-31T08:14:46;3.33;;;2.00;;
39958;SDS011;25639;53.634;9.880;2023-10-31T08:17:11;3.95;;;2.33;;
39958;SDS011;25639;53.634;9.880;2023-10-31T08:19:36;3.60;;;2.45;;
39958;SDS011;25639;53.634;9.880;2023-10-31T08:22:02;5.28;;;3.25;;
39958;SDS011;25639;53.634;9.880;2023-10-31T08:24:27;4.68;;;4.15;;
39958;SDS011;25639;53.634;9.880;2023-10-31T08:26:52;5.88;;;4.28;;
39958;SDS011;25639;53.634;9.880;2023-10-31T08:29:18;5.95;;;4.32;;
39958;SDS011;25639;53.634;9.880;2023-10-31T08:31:43;4.88;;;3.58;;
39958;SDS011;25639;53.634;9.880;2023-10-31T08:34:08;6.38;;;4.13;;
39958;SDS011;25639;53.634;9.880;2023-10-31T08:36:35;6.22;;;5.10;;
39958;SDS011;25639;53.634;9.880;2023-10-31T08:39:00;6.22;;;5.03;;
39958;SDS011;25639;53.634;9.880;2023-10-31T08:41:25;5.47;;;3.42;;
39958;SDS011;25639;53.634;9.880;2023-10-31T08:43:51;5.78;;;3.20;;
39958;SDS011;25639;53.634;9.880;2023-10-31T08:46:16;2.80;;;2.50;;
39958;SDS011;25639;53.634;9.880;2023-10-31T08:48:41;3.63;;;2.03;;
39958;SDS011;25639;53.634;9.880;2023-10-31T08:51:06;1.98;;;1.40;;
39958;SDS011;25639;53.634;9.880;2023-10-31T08:53:32;2.63;;;1.92;;
39958;SDS011;25639;53.634;9.880;2023-10-31T08:55:57;1.70;;;1.50;;
39958;SDS011;25639;53.634;9.880;2023-10-31T08:58:22;1.75;;;1.45;;
39958;SDS011;25639;53.634;9.880;2023-10-31T09:00:48;1.40;;;1.27;;
39958;SDS011;25639;53.634;9.880;2023-10-31T09:03:13;2.70;;;1.35;;
39958;SDS011;25639;53.634;9.880;2023-10-31T09:05:39;2.75;;;1.67;;
39958;SDS011;25639;53.634;9.880;2023-10-31T09:08:05;14.40;;;1.60;;
39958;SDS011;25639;53.634;9.880;2023-10-31T09:10:30;3.38;;;1.60;;
39958;SDS011;25639;53.634;9.880;2023-10-31T09:12:55;2.00;;;1.13;;
39958;SDS011;25639;53.634;9.880;2023-10-31T09:15:20;4.05;;;2.00;;
39958;SDS011;25639;53.634;9.880;2023-10-31T09:17:46;1.48;;;1.10;;
39958;SDS011;25639;53.634;9.880;2023-10-31T09:20:12;2.13;;;1.38;;
39958;SDS011;25639;53.634;9.880;2023-10-31T09:22:37;2.38;;;1.58;;
39958;SDS011;25639;53.634;9.880;2023-10-31T09:25:03;3.30;;;1.83;;
39958;SDS011;25639;53.634;9.880;2023-10-31T09:27:29;2.97;;;1.90;;
39958;SDS011;25639;53.634;9.880;2023-10-31T09:29:54;1.08;;;0.70;;
39958;SDS011;25639;53.634;9.880;2023-10-31T09:32:19;0.73;;;0.73;;
39958;SDS011;25639;53.634;9.880;2023-10-31T09:34:44;1.20;;;0.50;;
39958;SDS011;25639;53.634;9.880;2023-10-31T09:37:10;0.40;;;0.40;;
39958;SDS011;25639;53.634;9.880;2023-10-31T09:39:35;0.35;;;0.35;;
39958;SDS011;25639;53.634;9.880;2023-10-31T09:42:00;1.88;;;0.40;;
39958;SDS011;25639;53.634;9.880;2023-10-31T09:44:26;0.35;;;0.30;;
39958;SDS011;25639;53.634;9.880;2023-10-31T09:46:51;0.52;;;0.35;;
39958;SDS011;25639;53.634;9.880;2023-10-31T09:49:17;1.05;;;0.22;;
39958;SDS011;25639;53.634;9.880;2023-10-31T09:51:43;0.82;;;0.32;;
39958;SDS011;25639;53.634;9.880;2023-10-31T09:54:08;0.30;;;0.30;;
39958;SDS011;25639;53.634;9.880;2023-10-31T09:56:34;0.93;;;0.60;;
39958;SDS011;25639;53.634;9.880;2023-10-31T09:59:00;1.52;;;0.35;;
39958;SDS011;25639;53.634;9.880;2023-10-31T10:01:26;0.90;;;0.50;;
39958;SDS011;25639;53.634;9.880;2023-10-31T10:03:52;1.05;;;0.85;;
39958;SDS011;25639;53.634;9.880;2023-10-31T10:06:18;1.08;;;0.50;;
39958;SDS011;25639;53.634;9.880;2023-10-31T10:08:46;1.85;;;0.60;;
39958;SDS011;25639;53.634;9.880;2023-10-31T10:11:11;2.72;;;0.70;;
39958;SDS011;25639;53.634;9.880;2023-10-31T10:13:37;2.33;;;1.10;;
39958;SDS011;25639;53.634;9.880;2023-10-31T10:16:02;3.55;;;0.80;;
39958;SDS011;25639;53.634;9.880;2023-10-31T10:18:28;2.97;;;0.90;;
39958;SDS011;25639;53.634;9.880;2023-10-31T10:21:04;3.17;;;1.38;;
39958;SDS011;25639;53.634;9.880;2023-10-31T10:23:31;2.35;;;1.27;;
39958;SDS011;25639;53.634;9.880;2023-10-31T10:25:58;4.20;;;1.60;;
39958;SDS011;25639;53.634;9.880;2023-10-31T10:28:24;3.13;;;1.30;;
39958;SDS011;25639;53.634;9.880;2023-10-31T10:30:51;3.92;;;1.70;;
39958;SDS011;25639;53.634;9.880;2023-10-31T10:33:18;2.70;;;1.30;;
39958;SDS011;25639;53.634;9.880;2023-10-31T10:35:44;3.03;;;1.40;;
39958;SDS011;25639;53.634;9.880;2023-10-31T10:38:10;3.60;;;1.90;;
39958;SDS011;25639;53.634;9.880;2023-10-31T10:40:41;3.63;;;1.38;;
39958;SDS011;25639;53.634;9.880;2023-10-31T10:43:12;4.70;;;1.60;;
39958;SDS011;25639;53.634;9.880;2023-10-31T10:45:46;2.47;;;1.13;;
39958;SDS011;25639;53.634;9.880;2023-10-31T10:48:20;3.22;;;1.40;;
39958;SDS011;25639;53.634;9.880;2023-10-31T10:50:46;5.93;;;1.63;;
39958;SDS011;25639;53.634;9.880;2023-10-31T10:53:19;3.40;;;1.60;;
39958;SDS011;25639;53.634;9.880;2023-10-31T10:55:47;3.83;;;1.60;;
39958;SDS011;25639;53.634;9.880;2023-10-31T11:00:47;3.33;;;1.80;;
39958;SDS011;25639;53.634;9.880;2023-10-31T11:03:13;3.13;;;1.83;;
39958;SDS011;25639;53.634;9.880;2023-10-31T11:05:40;6.05;;;1.92;;
39958;SDS011;25639;53.634;9.880;2023-10-31T11:08:06;3.05;;;1.42;;
39958;SDS011;25639;53.634;9.880;2023-10-31T11:10:31;2.80;;;1.50;;
39958;SDS011;25639;53.634;9.880;2023-10-31T11:12:57;2.90;;;1.20;;
39958;SDS011;25639;53.634;9.880;2023-10-31T11:15:23;2.58;;;1.30;;
39958;SDS011;25639;53.634;9.880;2023-10-31T11:17:49;2.60;;;1.20;;
39958;SDS011;25639;53.634;9.880;2023-10-31T11:20:17;2.83;;;1.23;;
39958;SDS011;25639;53.634;9.880;2023-10-31T11:22:44;4.25;;;1.58;;
39958;SDS011;25639;53.634;9.880;2023-10-31T11:25:12;1.55;;;1.27;;
39958;SDS011;25639;53.634;9.880;2023-10-31T11:27:38;2.88;;;1.45;;
39958;SDS011;25639;53.634;9.880;2023-10-31T11:30:19;2.20;;;1.30;;
39958;SDS011;25639;53.634;9.880;2023-10-31T11:32:51;4.72;;;1.52;;
39958;SDS011;25639;53.634;9.880;2023-10-31T11:35:17;3.72;;;1.55;;
39958;SDS011;25639;53.634;9.880;2023-10-31T11:37:43;5.97;;;1.80;;
39958;SDS011;25639;53.634;9.880;2023-10-31T11:40:22;4.70;;;1.58;;
39958;SDS011;25639;53.634;9.880;2023-10-31T11:42:48;2.90;;;1.58;;
39958;SDS011;25639;53.634;9.880;2023-10-31T11:45:33;4.32;;;1.95;;
39958;SDS011;25639;53.634;9.880;2023-10-31T11:48:02;4.35;;;2.00;;
39958;SDS011;25639;53.634;9.880;2023-10-31T11:50:32;4.88;;;2.75;;
39958;SDS011;25639;53.634;9.880;2023-10-31T11:52:58;6.03;;;3.33;;
39958;SDS011;25639;53.634;9.880;2023-10-31T11:55:29;5.88;;;2.80;;
39958;SDS011;25639;53.634;9.880;2023-10-31T11:57:58;3.58;;;2.30;;
39958;SDS011;25639;53.634;9.880;2023-10-31T12:00:24;4.25;;;2.10;;
39958;SDS011;25639;53.634;9.880;2023-10-31T12:02:59;1.95;;;1.55;;
39958;SDS011;25639;53.634;9.880;2023-10-31T12:05:26;3.35;;;1.30;;
39958;SDS011;25639;53.634;9.880;2023-10-31T12:07:51;2.80;;;1.40;;
39958;SDS011;25639;53.634;9.880;2023-10-31T12:10:23;4.55;;;1.40;;
39958;SDS011;25639;53.634;9.880;2023-10-31T12:12:50;1.60;;;1.15;;
39958;SDS011;25639;53.634;9.880;2023-10-31T12:15:16;1.58;;;0.70;;
39958;SDS011;25639;53.634;9.880;2023-10-31T12:17:41;3.03;;;1.00;;
39958;SDS011;25639;53.634;9.880;2023-10-31T12:20:07;1.77;;;0.88;;
39958;SDS011;25639;53.634;9.880;2023-10-31T12:22:33;1.85;;;0.85;;
39958;SDS011;25639;53.634;9.880;2023-10-31T12:25:00;1.95;;;0.70;;
39958;SDS011;25639;53.634;9.880;2023-10-31T12:27:36;1.88;;;0.70;;
39958;SDS011;25639;53.634;9.880;2023-10-31T12:30:09;1.35;;;0.98;;
39958;SDS011;25639;53.634;9.880;2023-10-31T12:32:35;2.45;;;0.98;;
39958;SDS011;25639;53.634;9.880;2023-10-31T12:35:01;2.38;;;0.73;;
39958;SDS011;25639;53.634;9.880;2023-10-31T12:37:27;1.13;;;0.60;;
39958;SDS011;25639;53.634;9.880;2023-10-31T12:39:52;1.75;;;0.60;;
39958;SDS011;25639;53.634;9.880;2023-10-31T12:42:18;1.63;;;0.55;;
39958;SDS011;25639;53.634;9.880;2023-10-31T12:44:44;1.15;;;0.60;;
39958;SDS011;25639;53.634;9.880;2023-10-31T12:47:09;0.40;;;0.40;;
39958;SDS011;25639;53.634;9.880;2023-10-31T12:49:35;1.00;;;0.65;;
39958;SDS011;25639;53.634;9.880;2023-10-31T12:52:01;0.45;;;0.40;;
39958;SDS011;25639;53.634;9.880;2023-10-31T12:54:29;1.30;;;0.88;;
39958;SDS011;25639;53.634;9.880;2023-10-31T12:56:58;7.03;;;0.70;;
39958;SDS011;25639;53.634;9.880;2023-10-31T12:59:25;1.30;;;0.50;;
39958;SDS011;25639;53.634;9.880;2023-10-31T13:01:50;1.65;;;0.40;;
39958;SDS011;25639;53.634;9.880;2023-10-31T13:04:23;1.65;;;0.60;;
39958;SDS011;25639;53.634;9.880;2023-10-31T13:07:03;1.70;;;0.70;;
39958;SDS011;25639;53.634;9.880;2023-10-31T13:09:33;1.50;;;0.63;;
39958;SDS011;25639;53.634;9.880;2023-10-31T13:12:00;3.10;;;0.50;;
39958;SDS011;25639;53.634;9.880;2023-10-31T13:14:27;2.25;;;0.40;;
39958;SDS011;25639;53.634;9.880;2023-10-31T13:16:52;3.40;;;0.80;;
39958;SDS011;25639;53.634;9.880;2023-10-31T13:19:17;2.58;;;1.20;;
39958;SDS011;25639;53.634;9.880;2023-10-31T13:21:43;3.35;;;1.48;;
39958;SDS011;25639;53.634;9.880;2023-10-31T13:24:08;5.18;;;1.38;;
39958;SDS011;25639;53.634;9.880;2023-10-31T13:26:34;1.92;;;1.52;;
39958;SDS011;25639;53.634;9.880;2023-10-31T13:28:59;4.38;;;2.30;;
39958;SDS011;25639;53.634;9.880;2023-10-31T13:31:25;3.10;;;1.40;;
39958;SDS011;25639;53.634;9.880;2023-10-31T13:33:50;1.65;;;1.38;;
39958;SDS011;25639;53.634;9.880;2023-10-31T13:36:15;3.03;;;1.70;;
39958;SDS011;25639;53.634;9.880;2023-10-31T13:38:41;2.45;;;1.60;;
39958;SDS011;25639;53.634;9.880;2023-10-31T13:41:06;4.45;;;1.60;;
39958;SDS011;25639;53.634;9.880;2023-10-31T13:43:32;3.45;;;1.20;;
39958;SDS011;25639;53.634;9.880;2023-10-31T13:45:57;3.20;;;1.25;;
39958;SDS011;25639;53.634;9.880;2023-10-31T13:48:23;2.28;;;1.23;;
39958;SDS011;25639;53.634;9.880;2023-10-31T13:50:48;4.68;;;1.38;;
39958;SDS011;25639;53.634;9.880;2023-10-31T13:53:14;2.60;;;1.42;;
39958;SDS011;25639;53.634;9.880;2023-10-31T13:55:40;3.38;;;1.33;;
39958;SDS011;25639;53.634;9.880;2023-10-31T13:58:06;5.32;;;1.83;;
39958;SDS011;25639;53.634;9.880;2023-10-31T14:00:32;2.33;;;1.70;;
39958;SDS011;25639;53.634;9.880;2023-10-31T14:02:57;1.88;;;1.35;;
39958;SDS011;25639;53.634;9.880;2023-10-31T14:05:23;4.35;;;1.90;;
39958;SDS011;25639;53.634;9.880;2023-10-31T14:07:48;2.47;;;1.65;;
39958;SDS011;25639;53.634;9.880;2023-10-31T14:10:15;2.20;;;2.00;;
39958;SDS011;25639;53.634;9.880;2023-10-31T14:12:43;4.63;;;2.00;;
39958;SDS011;25639;53.634;9.880;2023-10-31T14:15:09;2.92;;;1.40;;
39958;SDS011;25639;53.634;9.880;2023-10-31T14:17:34;2.92;;;1.08;;
39958;SDS011;25639;53.634;9.880;2023-10-31T14:19:59;3.75;;;0.93;;
39958;SDS011;25639;53.634;9.880;2023-10-31T14:22:25;3.05;;;0.95;;
39958;SDS011;25639;53.634;9.880;2023-10-31T14:24:50;3.10;;;1.95;;
39958;SDS011;25639;53.634;9.880;2023-10-31T14:27:15;5.10;;;2.50;;
39958;SDS011;25639;53.634;9.880;2023-10-31T14:29:40;5.28;;;1.90;;
39958;SDS011;25639;53.634;9.880;2023-10-31T14:32:06;3.90;;;2.00;;